Mora RC Data

Date Time Air Temperature Relative Humidity Dewpoint Windchill Heat Index Wind Speed Wind Dir. Rain Solar Radiation Soil Temperature
2m 2m 3m 3m 10cm
US/Mountain F % F F F MPH deg in MJ/m^2 F
max avg avg
2020-09-16 00:05:00 45.9 51.1 28.9 43.8 45.9 4.4 6.9 4.2 238.8 276.2 0.00 0.0000000 62.4
2020-09-16 00:10:00 45.3 52.6 28.9 43.8 45.3 3.5 4.9 3.8 252.9 240.5 0.00 0.0000000 62.3
2020-09-16 00:15:00 45.6 49.7 27.8 42.0 45.6 6.7 8.3 5.1 268.9 264.6 0.00 0.0000000 62.2
2020-09-16 00:20:00 46.0 50.3 28.5 43.8 46.0 4.6 6.7 4.7 211.4 245.8 0.00 0.0000000 62.1
2020-09-16 00:25:00 46.4 48.9 28.2 42.7 46.4 7.2 8.3 5.6 245.3 272.3 0.00 0.0000000 62.0
2020-09-16 00:30:00 47.3 46.4 27.8 44.4 47.3 6.0 9.6 7.0 265.3 272.4 0.00 0.0000000 62.0
2020-09-16 00:35:00 47.8 45.9 28.0 46.6 47.8 3.7 10.5 5.8 317.7 276.3 0.00 0.0000000 61.9
2020-09-16 00:40:00 46.7 48.9 28.5 45.3 46.7 3.7 5.1 3.4 242.9 270.3 0.00 0.0000000 61.8
2020-09-16 00:45:00 46.1 49.6 28.2 43.7 46.1 4.7 6.3 4.8 237.5 264.4 0.00 0.0000000 61.7
2020-09-16 00:50:00 45.9 49.9 28.3 44.3 45.9 3.8 6.7 4.4 251.9 264.9 0.00 0.0000000 61.6
2020-09-16 00:55:00 45.9 49.7 28.1 45.9 45.9 3.0 8.0 4.9 215.5 259.8 0.00 0.0000000 61.5
2020-09-16 01:00:00 45.9 50.1 28.3 44.7 45.9 3.3 8.3 4.5 341.8 276.7 0.00 0.0000000 61.4
2020-09-16 01:05:00 45.6 50.6 28.3 43.0 45.6 4.9 7.2 3.9 245.8 270.1 0.00 0.0000000 61.4
2020-09-16 01:10:00 45.3 50.2 27.9 42.5 45.3 5.3 6.0 4.3 288.9 268.3 0.00 0.0000000 61.3
2020-09-16 01:15:00 46.3 47.5 27.4 43.3 46.3 5.8 8.8 4.9 241.5 265.2 0.00 0.0000000 61.2
2020-09-16 01:20:00 46.3 48.2 27.8 44.4 46.3 4.2 8.7 5.9 294.5 270.5 0.00 0.0000000 61.1
2020-09-16 01:25:00 46.1 48.1 27.6 43.6 46.1 5.1 8.0 5.4 277.1 271.2 0.00 0.0000000 61.1
2020-09-16 01:30:00 46.6 46.9 27.3 45.5 46.6 3.3 7.4 4.5 215.8 273.1 0.00 0.0000000 61.0
2020-09-16 01:35:00 46.5 47.6 27.7 42.3 46.5 8.3 8.3 5.0 278.3 283.2 0.00 0.0000000 60.9
2020-09-16 01:40:00 45.8 49.8 28.1 43.1 45.8 5.1 7.4 4.5 289.4 272.5 0.00 0.0000000 60.8
2020-09-16 01:45:00 45.8 48.5 27.4 42.3 45.8 6.5 8.0 5.8 288.4 272.5 0.00 0.0000000 60.7
2020-09-16 01:50:00 46.1 48.4 27.7 44.7 46.1 3.5 7.8 4.6 193.2 268.0 0.00 0.0000000 60.7
2020-09-16 01:55:00 45.1 50.7 27.9 43.8 45.1 3.3 4.6 3.2 252.0 261.0 0.00 0.0000000 60.6
2020-09-16 02:00:00 45.1 50.2 27.6 42.6 45.1 4.7 5.5 3.7 280.1 270.7 0.00 0.0000000 60.5
2020-09-16 02:05:00 45.2 49.6 27.4 42.7 45.2 4.7 8.1 4.5 272.8 262.7 0.00 0.0000000 60.5
2020-09-16 02:10:00 44.9 50.7 27.7 41.8 44.9 5.6 5.8 4.3 240.8 242.4 0.00 0.0000000 60.4
2020-09-16 02:15:00 44.8 50.8 27.7 44.8 44.8 2.2 5.3 3.2 305.2 262.6 0.00 0.0000000 60.3
2020-09-16 02:20:00 45.0 50.5 27.7 43.2 45.0 3.8 6.5 4.0 245.3 266.5 0.00 0.0000000 60.2
2020-09-16 02:25:00 44.5 51.8 27.8 41.9 44.5 4.7 6.2 4.1 285.0 263.1 0.00 0.0000000 60.2
2020-09-16 02:30:00 44.7 50.9 27.6 44.7 44.7 1.7 6.3 3.9 160.2 252.1 0.00 0.0000000 60.1
2020-09-16 02:35:00 44.2 52.1 27.8 44.2 44.2 2.2 3.3 2.2 324.6 209.7 0.00 0.0000000 60.0
2020-09-16 02:40:00 44.7 51.4 27.8 44.7 44.7 1.5 4.6 2.6 222.8 253.4 0.00 0.0000000 60.0
2020-09-16 02:45:00 44.4 52.4 28.1 42.8 44.4 3.5 5.5 2.9 310.2 282.7 0.00 0.0000000 59.9
2020-09-16 02:50:00 44.5 52.0 28.0 44.5 44.5 2.6 6.0 3.0 249.6 260.8 0.00 0.0000000 59.8
2020-09-16 02:55:00 44.5 52.0 28.0 44.5 44.5 1.2 6.5 3.3 348.2 287.8 0.00 0.0000000 59.7
2020-09-16 03:00:00 44.3 52.2 27.8 44.3 44.3 2.6 3.8 2.3 273.7 18.6 0.00 0.0000000 59.7
2020-09-16 03:05:00 44.3 52.2 27.9 44.3 44.3 2.2 6.0 3.1 324.5 285.3 0.00 0.0000000 59.6
2020-09-16 03:10:00 44.2 52.7 28.0 44.2 44.2 1.3 4.4 2.8 148.9 277.2 0.00 0.0000000 59.5
2020-09-16 03:15:00 43.7 53.7 28.0 43.7 43.7 1.9 2.2 1.5 214.3 155.9 0.00 0.0000000 59.5
2020-09-16 03:20:00 43.4 54.5 28.1 41.7 43.4 3.5 5.6 3.8 203.8 215.8 0.00 0.0000000 59.4
2020-09-16 03:25:00 43.6 53.9 28.0 41.3 43.6 4.2 5.8 4.6 244.3 224.2 0.00 0.0000000 59.3
2020-09-16 03:30:00 43.3 54.1 27.8 41.3 43.3 3.8 4.9 4.0 267.9 239.0 0.00 0.0000000 59.3
2020-09-16 03:35:00 43.6 53.6 27.8 42.0 43.6 3.3 4.6 2.9 274.7 234.3 0.00 0.0000000 59.2
2020-09-16 03:40:00 43.5 53.9 27.9 43.5 43.5 1.2 3.0 1.6 212.3 278.9 0.00 0.0000000 59.1
2020-09-16 03:45:00 43.4 54.5 28.1 43.4 43.4 1.9 3.1 1.9 213.4 212.6 0.00 0.0000000 59.1
2020-09-16 03:50:00 43.2 54.9 28.1 40.5 43.2 4.6 4.6 3.3 295.5 248.0 0.00 0.0000000 59.0
2020-09-16 03:55:00 43.3 54.6 28.0 43.3 43.3 1.7 3.8 2.1 240.6 251.5 0.00 0.0000000 58.9
2020-09-16 04:00:00 43.4 54.3 28.0 40.1 43.4 5.5 5.8 2.8 253.7 220.0 0.00 0.0000000 58.9
2020-09-16 04:05:00 43.3 54.5 28.0 43.3 43.3 1.9 6.2 3.3 236.3 254.4 0.00 0.0000000 58.8
2020-09-16 04:10:00 43.5 54.5 28.1 42.2 43.5 3.1 5.1 4.1 204.3 221.5 0.00 0.0000000 58.8
2020-09-16 04:15:00 43.2 56.3 28.7 40.4 43.2 4.7 5.8 4.1 221.7 224.1 0.00 0.0000000 58.7
2020-09-16 04:20:00 42.7 57.0 28.5 40.6 42.7 3.8 5.1 4.0 223.6 224.3 0.00 0.0000000 58.6
2020-09-16 04:25:00 42.6 57.0 28.4 40.7 42.6 3.5 4.9 4.0 237.6 243.9 0.00 0.0000000 58.6
2020-09-16 04:30:00 43.1 55.8 28.4 41.2 43.1 3.7 4.9 3.1 205.5 214.6 0.00 0.0000000 58.5
2020-09-16 04:35:00 43.0 55.5 28.1 43.0 43.0 0.0 3.3 1.5 187.7 241.4 0.00 0.0000000 58.5
2020-09-16 04:40:00 42.8 56.7 28.5 40.3 42.8 4.2 4.2 2.9 214.5 216.6 0.00 0.0000000 58.4
2020-09-16 04:45:00 43.3 55.7 28.5 40.4 43.3 4.9 5.1 4.2 224.9 226.7 0.00 0.0000000 58.3
2020-09-16 04:50:00 42.5 57.3 28.5 41.0 42.5 3.1 5.3 3.9 193.7 228.5 0.00 0.0000000 58.3
2020-09-16 04:55:00 42.2 57.9 28.4 40.5 42.2 3.3 4.6 3.4 239.9 244.8 0.00 0.0000000 58.2
2020-09-16 05:00:00 42.9 55.8 28.1 41.3 42.9 3.3 3.5 2.6 195.7 219.8 0.00 0.0000000 58.1
2020-09-16 05:05:00 43.0 55.6 28.2 43.0 43.0 2.6 3.8 3.0 221.3 232.4 0.00 0.0000000 58.1
2020-09-16 05:10:00 43.0 55.9 28.3 43.0 43.0 2.4 3.7 2.7 215.1 214.5 0.00 0.0000000 58.0
2020-09-16 05:15:00 43.4 55.2 28.3 43.4 43.4 1.2 3.3 2.2 171.0 224.5 0.00 0.0000000 58.0
2020-09-16 05:20:00 43.6 54.8 28.4 43.6 43.6 1.9 3.8 2.6 167.6 206.0 0.00 0.0000000 57.9
2020-09-16 05:25:00 43.6 54.1 28.1 43.6 43.6 1.5 2.4 1.7 215.5 159.6 0.00 0.0000000 57.8
2020-09-16 05:30:00 42.6 58.3 29.0 42.6 42.6 1.5 3.5 2.3 65.6 208.8 0.00 0.0000000 57.8
2020-09-16 05:35:00 42.4 58.9 29.0 42.4 42.4 1.0 1.9 1.1 293.2 118.1 0.00 0.0000000 57.7
2020-09-16 05:40:00 42.1 59.1 28.8 39.4 42.1 4.4 5.6 3.2 210.6 211.9 0.00 0.0000000 57.7
2020-09-16 05:45:00 42.6 57.2 28.5 40.3 42.6 4.0 5.1 4.2 186.9 204.2 0.00 0.0000000 57.6
2020-09-16 05:50:00 43.1 56.2 28.6 43.1 43.1 1.3 3.5 2.0 171.5 135.3 0.00 0.0000000 57.5
2020-09-16 05:55:00 43.6 55.2 28.5 41.7 43.6 3.7 3.7 2.3 210.2 199.1 0.00 0.0000000 57.5
2020-09-16 06:00:00 43.9 54.9 28.8 41.3 43.9 4.7 4.7 3.4 199.8 200.2 0.00 0.0000000 57.5
2020-09-16 06:05:00 43.3 56.0 28.6 41.1 43.3 4.0 6.9 4.9 214.4 225.7 0.00 0.0000000 57.4
2020-09-16 06:10:00 43.4 55.5 28.5 40.6 43.4 4.7 5.5 4.4 194.5 214.3 0.00 0.0000000 57.3
2020-09-16 06:15:00 43.9 53.9 28.3 41.1 43.9 4.9 4.9 3.2 190.4 197.0 0.00 0.0000000 57.3
2020-09-16 06:20:00 44.7 52.5 28.3 44.7 44.7 2.8 5.5 4.5 228.7 246.8 0.00 0.0000000 57.2
2020-09-16 06:25:00 43.7 54.0 28.1 43.7 43.7 1.3 4.2 2.6 25.8 334.7 0.00 0.0000000 57.2
2020-09-16 06:30:00 42.6 55.6 27.8 42.6 42.6 1.2 1.5 0.6 98.1 85.6 0.00 0.0000000 57.1
2020-09-16 06:35:00 42.6 57.1 28.5 42.6 42.6 1.5 3.7 1.9 344.7 292.6 0.00 0.0000000 57.1
2020-09-16 06:40:00 42.0 59.5 28.9 42.0 42.0 2.4 3.0 2.3 283.3 341.8 0.00 0.0000000 57.0
2020-09-16 06:45:00 42.8 57.9 28.9 42.8 42.8 1.7 5.1 3.3 1.8 303.4 0.00 0.0000375 57.0
2020-09-16 06:50:00 42.2 58.7 28.8 40.2 42.2 3.7 4.0 1.9 263.8 331.2 0.00 0.0001542 56.9
2020-09-16 06:55:00 42.6 57.3 28.6 42.6 42.6 1.9 4.0 2.8 328.8 274.9 0.00 0.0012341 56.9
2020-09-16 07:00:00 42.8 56.7 28.5 42.8 42.8 2.8 4.4 3.2 277.8 271.9 0.00 0.0025446 56.8
2020-09-16 07:05:00 42.4 58.6 28.9 40.7 42.4 3.3 5.6 3.4 269.8 261.6 0.00 0.0046753 56.8
2020-09-16 07:10:00 42.5 57.9 28.7 40.0 42.5 4.2 5.6 4.2 244.2 271.8 0.00 0.0085424 56.7
2020-09-16 07:15:00 43.4 55.9 28.7 43.4 43.4 2.6 5.6 3.8 237.7 264.5 0.00 0.0116750 56.7
2020-09-16 07:20:00 43.1 56.8 28.8 40.1 43.1 5.1 5.1 3.3 249.2 237.2 0.00 0.0152155 56.6
2020-09-16 07:25:00 44.4 54.3 28.9 42.0 44.4 4.6 7.6 4.9 232.1 261.4 0.00 0.0193631 56.6
2020-09-16 07:30:00 44.6 55.9 29.8 43.1 44.6 3.5 6.2 4.0 306.2 255.4 0.00 0.0231203 56.5
2020-09-16 07:35:00 44.7 54.4 29.2 42.8 44.7 3.8 5.8 4.1 295.9 300.7 0.00 0.0271070 56.5
2020-09-16 07:40:00 45.1 54.1 29.5 42.7 45.1 4.6 8.1 4.9 251.2 280.4 0.00 0.0315898 56.5
2020-09-16 07:45:00 45.8 51.0 28.7 42.7 45.8 6.0 7.6 6.3 269.8 260.2 0.00 0.0363237 56.4
2020-09-16 07:50:00 46.9 50.4 29.4 44.8 46.9 4.6 8.7 5.0 281.3 277.9 0.00 0.0408479 56.4
2020-09-16 07:55:00 47.1 52.4 30.5 45.6 47.1 3.8 6.7 4.7 289.4 280.0 0.00 0.0455373 56.4
2020-09-16 08:00:00 47.9 50.5 30.4 47.1 47.9 3.1 6.2 4.0 250.7 269.7 0.00 0.0505892 56.4
2020-09-16 08:05:00 48.3 49.5 30.3 46.1 48.3 5.3 6.0 4.0 256.5 264.2 0.00 0.0556198 56.3
2020-09-16 08:10:00 49.3 47.7 30.3 49.3 49.3 2.8 5.5 3.7 285.6 262.6 0.00 0.0607301 56.3
2020-09-16 08:15:00 50.1 46.2 30.2 50.1 50.1 6.5 6.9 4.2 298.9 296.9 0.00 0.0661220 56.3
2020-09-16 08:20:00 50.7 47.4 31.4 50.7 50.7 5.6 6.7 5.1 280.3 277.4 0.00 0.0714831 56.3
2020-09-16 08:25:00 51.3 46.1 31.3 51.3 51.3 4.6 6.5 4.5 224.6 272.8 0.00 0.0762845 56.3
2020-09-16 08:30:00 52.3 44.3 31.2 52.3 52.3 4.0 5.6 4.7 268.6 266.2 0.00 0.0816111 56.4
2020-09-16 08:35:00 53.2 44.1 31.9 53.2 53.2 1.9 5.6 2.7 316.3 308.4 0.00 0.0860696 56.4
2020-09-16 08:40:00 53.9 44.3 32.7 53.9 53.9 1.9 3.8 2.6 339.9 329.9 0.00 0.0908854 56.4
2020-09-16 08:45:00 55.1 41.7 32.3 55.1 55.1 2.8 3.5 2.1 258.2 295.0 0.00 0.0972599 56.4
2020-09-16 08:50:00 56.3 42.7 33.9 56.3 56.3 2.1 2.4 1.5 248.3 324.6 0.00 0.1021583 56.5
2020-09-16 08:55:00 56.6 42.1 33.8 56.6 56.6 2.1 4.9 2.9 347.2 302.5 0.00 0.1065171 56.6
2020-09-16 09:00:00 57.3 38.6 32.3 57.3 57.3 2.4 3.1 1.9 339.1 333.7 0.00 0.1109757 56.6
2020-09-16 09:05:00 58.4 37.0 32.2 58.4 58.4 0.0 2.6 1.2 319.7 0.8 0.00 0.1170539 56.7
2020-09-16 09:10:00 59.4 36.3 32.6 59.4 59.4 2.4 3.0 1.3 24.9 45.5 0.00 0.1217218 56.8
2020-09-16 09:15:00 59.9 34.4 31.7 59.9 59.9 1.3 2.2 1.3 342.2 0.7 0.00 0.1262489 56.9
2020-09-16 09:20:00 59.9 35.7 32.7 59.9 59.9 2.2 3.0 2.1 330.6 330.7 0.00 0.1317879 57.0
2020-09-16 09:25:00 60.2 36.0 33.1 60.2 60.2 0.0 2.6 1.8 8.9 309.0 0.00 0.1362301 57.1
2020-09-16 09:30:00 61.5 32.5 31.8 61.5 61.5 1.3 2.2 1.2 277.7 351.2 0.00 0.1418400 57.2
2020-09-16 09:35:00 62.1 32.5 32.3 62.1 62.1 1.2 2.4 1.4 140.0 311.6 0.00 0.1463305 57.3
2020-09-16 09:40:00 63.3 32.7 33.5 63.3 63.3 2.1 3.1 1.9 196.7 327.6 0.00 0.1501025 57.5
2020-09-16 09:45:00 64.0 33.9 35.0 64.0 64.0 2.2 4.0 2.6 1.2 264.5 0.00 0.1555925 57.6
2020-09-16 09:50:00 64.6 28.9 31.5 64.6 64.6 1.7 3.3 2.1 330.8 325.1 0.00 0.1607513 57.8
2020-09-16 09:55:00 65.6 29.0 32.5 65.6 65.6 1.0 2.8 1.8 331.0 309.2 0.00 0.1649295 57.9
2020-09-16 10:00:00 67.3 22.1 27.2 67.3 67.3 0.0 2.6 1.5 178.6 86.9 0.00 0.1698257 58.1
2020-09-16 10:05:00 68.8 21.9 28.3 68.8 68.8 2.4 3.5 1.5 154.2 145.0 0.00 0.1749259 58.2
2020-09-16 10:10:00 69.3 17.7 23.5 69.3 69.3 3.5 4.2 2.7 53.8 109.0 0.00 0.1791627 58.4
2020-09-16 10:15:00 69.6 17.3 23.2 69.6 69.6 2.4 4.7 2.7 340.2 92.3 0.00 0.1821774 58.6
2020-09-16 10:20:00 69.7 16.1 21.7 69.7 69.7 7.4 7.8 3.1 116.5 102.6 0.00 0.1874510 58.8
2020-09-16 10:25:00 70.2 16.3 22.3 70.2 70.2 3.0 5.5 3.8 51.6 96.1 0.00 0.1926342 59.1
2020-09-16 10:30:00 70.6 17.4 24.2 70.6 70.6 4.6 4.6 3.0 121.3 67.6 0.00 0.1967227 59.3
2020-09-16 10:35:00 70.6 17.6 24.5 70.6 70.6 3.8 8.1 4.9 104.6 101.3 0.00 0.2001169 59.5
2020-09-16 10:40:00 71.2 16.8 23.8 71.2 71.2 3.1 7.2 4.6 122.5 113.2 0.00 0.2033915 59.8
2020-09-16 10:45:00 70.4 15.6 21.4 70.4 70.4 3.8 6.0 4.0 138.2 126.0 0.00 0.2057661 60.0
2020-09-16 10:50:00 70.8 17.7 24.7 70.8 70.8 2.8 4.9 2.9 334.2 181.9 0.00 0.2092600 60.3
2020-09-16 10:55:00 71.2 16.6 23.5 71.2 71.2 6.3 8.1 4.1 94.6 84.8 0.00 0.2123306 60.5
2020-09-16 11:00:00 71.9 15.8 22.9 71.9 71.9 4.6 4.9 3.5 86.9 111.9 0.00 0.2161697 60.8
2020-09-16 11:05:00 72.2 15.7 23.0 72.2 72.2 3.1 7.6 4.8 73.6 89.6 0.00 0.2179657 61.0
2020-09-16 11:10:00 71.8 15.0 21.7 71.8 71.8 4.7 8.3 5.1 78.9 80.2 0.00 0.2197775 61.3
2020-09-16 11:15:00 71.4 15.8 22.6 71.4 71.4 5.1 14.4 6.8 80.8 91.1 0.00 0.2212497 61.6
2020-09-16 11:20:00 71.9 18.1 26.3 71.9 71.9 4.0 9.6 5.2 83.6 93.5 0.00 0.2238973 61.8
2020-09-16 11:25:00 72.5 14.6 21.6 72.5 72.5 9.7 9.7 7.0 49.2 100.9 0.00 0.2276717 62.1
2020-09-16 11:30:00 72.2 15.6 22.9 72.2 72.2 7.8 8.3 5.4 119.3 81.7 0.00 0.2309061 62.4
2020-09-16 11:35:00 72.2 13.5 19.4 72.2 72.2 6.0 11.2 7.3 83.6 92.0 0.00 0.2335440 62.6
2020-09-16 11:40:00 72.6 16.2 24.1 72.6 72.6 6.5 10.1 6.4 102.0 104.3 0.00 0.2356926 62.9
2020-09-16 11:45:00 72.3 14.6 21.4 72.3 72.3 4.2 11.7 6.0 113.6 81.6 0.00 0.2374699 63.2
2020-09-16 11:50:00 73.0 17.6 26.5 73.0 73.0 4.2 11.5 6.9 94.8 89.5 0.00 0.2374154 63.5
2020-09-16 11:55:00 72.6 15.0 22.3 72.6 72.6 9.2 10.5 6.8 99.8 82.9 0.00 0.2389928 63.7
2020-09-16 12:00:00 72.1 16.0 23.4 72.1 72.1 6.5 9.4 6.3 75.6 99.1 0.00 0.2387573 64.0
2020-09-16 12:05:00 72.8 16.1 24.0 72.8 72.8 3.8 10.8 6.1 74.9 94.7 0.00 0.2402577 64.3
2020-09-16 12:10:00 72.9 14.7 22.0 72.9 72.9 8.1 8.1 5.3 108.1 84.5 0.00 0.2421854 64.5
2020-09-16 12:15:00 72.8 16.2 24.2 72.8 72.8 3.8 11.0 6.7 56.5 70.0 0.00 0.2440663 64.8
2020-09-16 12:20:00 72.9 15.5 23.3 72.9 72.9 5.3 10.8 6.7 86.3 89.5 0.00 0.2453912 65.0
2020-09-16 12:25:00 73.1 14.3 21.6 73.1 73.1 7.1 13.3 7.3 120.8 93.0 0.00 0.2478762 65.3
2020-09-16 12:30:00 73.5 15.0 23.0 73.5 73.5 2.8 9.0 5.9 95.9 76.7 0.00 0.2484745 65.6
2020-09-16 12:35:00 74.0 15.3 23.8 74.0 74.0 9.7 9.7 6.5 101.0 97.5 0.00 0.2493731 65.8
2020-09-16 12:40:00 73.5 16.3 24.9 73.5 73.5 5.5 9.7 6.2 40.1 75.0 0.00 0.2494355 66.0
2020-09-16 12:45:00 74.1 16.4 25.6 74.1 74.1 7.1 8.3 5.5 60.9 78.3 0.00 0.2492133 66.3
2020-09-16 12:50:00 73.2 15.1 22.8 73.2 73.2 5.1 11.5 7.1 127.9 116.5 0.00 0.2494018 66.5
2020-09-16 12:55:00 73.4 17.1 26.0 73.4 73.4 5.5 9.4 5.6 74.9 103.7 0.00 0.2515982 66.8
2020-09-16 13:00:00 74.0 14.7 22.9 74.0 74.0 6.7 12.2 5.9 78.2 92.7 0.00 0.2528112 67.0
2020-09-16 13:05:00 73.5 15.5 23.8 73.5 73.5 13.0 13.0 7.3 93.5 87.6 0.00 0.2525647 67.2
2020-09-16 13:10:00 73.5 15.5 23.7 73.5 73.5 7.6 11.0 6.4 62.3 95.7 0.00 0.2511752 67.5
2020-09-16 13:15:00 74.1 13.8 21.4 74.1 74.1 8.1 9.2 6.2 78.6 85.9 0.00 0.2528593 67.7
2020-09-16 13:20:00 73.3 14.4 21.9 73.3 73.3 8.7 12.2 8.8 103.4 92.1 0.00 0.2538167 68.0
2020-09-16 13:25:00 74.2 13.8 21.7 74.2 74.2 6.2 11.9 7.1 48.8 103.6 0.00 0.2517529 68.2
2020-09-16 13:30:00 74.4 14.6 23.0 74.4 74.4 4.9 9.0 4.7 79.5 73.4 0.00 0.2513696 68.4
2020-09-16 13:35:00 74.3 13.9 21.9 74.3 74.3 7.6 10.8 6.1 111.2 76.0 0.00 0.2517553 68.6
2020-09-16 13:40:00 74.5 14.0 22.1 74.5 74.5 10.6 12.6 7.5 77.8 85.0 0.00 0.2499108 68.8
2020-09-16 13:45:00 75.0 15.3 24.7 75.0 75.0 5.8 8.5 5.7 90.2 78.7 0.00 0.2473808 69.0
2020-09-16 13:50:00 74.4 14.4 22.7 74.4 74.4 7.6 10.6 7.0 90.0 91.3 0.00 0.2485412 69.1
2020-09-16 13:55:00 74.7 14.6 23.2 74.7 74.7 10.3 14.9 8.5 106.8 97.8 0.00 0.2476051 69.3
2020-09-16 14:00:00 74.7 15.1 24.1 74.7 74.7 6.3 12.1 8.7 82.6 106.8 0.00 0.2467192 69.5
2020-09-16 14:05:00 74.5 13.4 21.1 74.5 74.5 8.5 10.5 7.8 89.8 93.5 0.00 0.2449452 69.6
2020-09-16 14:10:00 74.8 14.1 22.6 74.8 74.8 9.7 10.3 7.1 75.0 99.5 0.00 0.2428353 69.8
2020-09-16 14:15:00 74.3 14.5 22.8 74.3 74.3 11.0 13.7 8.9 134.8 96.4 0.00 0.2424200 69.9
2020-09-16 14:20:00 75.1 15.8 25.5 75.1 75.1 7.6 11.5 7.6 81.8 90.5 0.00 0.2451296 70.1
2020-09-16 14:25:00 74.5 14.2 22.4 74.5 74.5 9.4 12.2 9.2 92.4 92.2 0.00 0.2427368 70.3
2020-09-16 14:30:00 74.8 14.8 23.7 74.8 74.8 5.8 10.3 7.0 105.4 88.1 0.00 0.2356910 70.4
2020-09-16 14:35:00 74.6 15.0 23.9 74.6 74.6 9.0 12.1 6.1 87.0 80.5 0.00 0.2325270 70.6
2020-09-16 14:40:00 74.3 15.2 23.9 74.3 74.3 4.9 10.6 7.7 60.0 93.7 0.00 0.2300463 70.7
2020-09-16 14:45:00 74.5 15.0 23.8 74.5 74.5 4.9 11.9 6.7 36.9 78.7 0.00 0.2293660 70.9
2020-09-16 14:50:00 74.8 14.4 23.0 74.8 74.8 10.3 10.3 6.3 96.2 85.6 0.00 0.2263630 71.0
2020-09-16 14:55:00 74.3 14.6 22.9 74.3 74.3 6.2 9.7 6.9 62.3 81.8 0.00 0.1591891 71.2
2020-09-16 15:00:00 72.4 15.9 23.5 72.4 72.4 3.1 9.0 5.5 323.0 76.3 0.00 0.0742544 71.4
2020-09-16 15:05:00 73.5 16.3 24.9 73.5 73.5 3.1 7.2 4.7 205.0 73.4 0.00 0.1869742 71.5
2020-09-16 15:10:00 74.1 15.2 23.8 74.1 74.1 5.6 9.6 5.9 72.2 78.5 0.00 0.1820603 71.6
2020-09-16 15:15:00 74.6 15.0 23.9 74.6 74.6 9.9 10.1 7.1 89.4 77.7 0.00 0.1946862 71.7
2020-09-16 15:20:00 74.5 14.4 22.8 74.5 74.5 4.7 10.5 6.4 109.8 67.5 0.00 0.1922605 71.8
2020-09-16 15:25:00 72.8 14.4 21.4 72.8 72.8 9.0 12.1 7.1 96.8 93.0 0.00 0.0953097 71.9
2020-09-16 15:30:00 71.6 16.6 24.0 71.6 71.6 6.9 11.2 6.6 97.0 89.5 0.00 0.1004580 72.0
2020-09-16 15:35:00 72.8 14.5 21.5 72.8 72.8 8.5 12.1 7.8 59.9 81.2 0.00 0.1714433 72.1
2020-09-16 15:40:00 73.6 15.7 24.2 73.6 73.6 8.0 10.5 6.5 68.5 71.8 0.00 0.1936562 72.1
2020-09-16 15:45:00 73.7 15.1 23.4 73.7 73.7 6.2 11.3 6.4 67.0 69.9 0.00 0.1842484 72.2
2020-09-16 15:50:00 73.9 15.3 23.9 73.9 73.9 4.4 7.2 5.0 148.1 73.6 0.00 0.1773957 72.2
2020-09-16 15:55:00 72.1 16.5 24.2 72.1 72.1 6.2 12.2 8.0 78.1 87.4 0.00 0.1250937 72.2
2020-09-16 16:00:00 71.0 15.4 21.6 71.0 71.0 9.7 10.3 7.4 98.9 90.7 0.00 0.0735923 72.3
2020-09-16 16:05:00 70.9 15.4 21.6 70.9 70.9 9.2 9.6 6.7 120.1 93.1 0.00 0.1017090 72.3
2020-09-16 16:10:00 72.1 15.8 23.1 72.1 72.1 11.0 11.0 6.4 95.6 89.5 0.00 0.1419742 72.3
2020-09-16 16:15:00 72.0 16.6 24.2 72.0 72.0 8.1 12.4 8.1 67.4 86.8 0.00 0.1406533 72.4
2020-09-16 16:20:00 71.7 15.5 22.4 71.7 71.7 11.2 11.2 6.9 69.0 78.5 0.00 0.1362310 72.4
2020-09-16 16:25:00 71.3 16.6 23.6 71.3 71.3 7.1 9.7 7.4 100.3 91.3 0.00 0.1083556 72.4
2020-09-16 16:30:00 71.0 15.9 22.3 71.0 71.0 7.4 13.5 8.5 76.3 94.7 0.00 0.0988120 72.3
2020-09-16 16:35:00 70.8 16.6 23.3 70.8 70.8 6.0 10.6 7.7 71.5 94.9 0.00 0.0999222 72.3
2020-09-16 16:40:00 70.7 17.2 24.0 70.7 70.7 3.3 13.5 8.0 64.3 92.2 0.00 0.1033541 72.3
2020-09-16 16:45:00 70.9 15.6 21.8 70.9 70.9 12.2 13.7 7.0 65.1 81.9 0.00 0.0941830 72.3
2020-09-16 16:50:00 70.2 18.2 25.0 70.2 70.2 5.3 11.5 6.4 73.4 77.1 0.00 0.0647374 72.3
2020-09-16 16:55:00 70.4 16.5 22.7 70.4 70.4 8.1 9.9 5.5 102.5 76.1 0.00 0.0965055 72.2
2020-09-16 17:00:00 70.6 17.8 24.7 70.6 70.6 5.5 13.1 7.0 51.0 66.4 0.00 0.1001144 72.2
2020-09-16 17:05:00 70.7 17.4 24.2 70.7 70.7 7.2 9.0 5.8 66.4 85.6 0.00 0.0940018 72.1
2020-09-16 17:10:00 70.4 17.9 24.7 70.4 70.4 3.1 10.1 6.0 61.7 71.3 0.00 0.0899338 72.1
2020-09-16 17:15:00 70.2 17.3 23.8 70.2 70.2 6.7 9.0 6.2 79.6 88.2 0.00 0.0808192 72.0
2020-09-16 17:20:00 70.0 17.4 23.7 70.0 70.0 8.0 8.1 5.6 36.0 83.8 0.00 0.0796595 71.9
2020-09-16 17:25:00 69.7 17.4 23.5 69.7 69.7 4.9 7.4 5.3 87.0 83.5 0.00 0.0753632 71.9
2020-09-16 17:30:00 69.7 18.0 24.2 69.7 69.7 6.0 11.2 5.8 57.8 82.0 0.00 0.0697921 71.8
2020-09-16 17:35:00 69.3 17.0 22.6 69.3 69.3 11.2 12.1 6.3 73.5 89.8 0.00 0.0638201 71.8
2020-09-16 17:40:00 68.9 17.6 23.1 68.9 68.9 5.1 10.5 5.6 95.1 74.8 0.00 0.0589014 71.7
2020-09-16 17:45:00 68.6 18.7 24.3 68.6 68.6 9.4 9.4 5.2 118.5 91.6 0.00 0.0543253 71.6
2020-09-16 17:50:00 68.3 18.3 23.5 68.3 68.3 7.6 11.0 7.2 84.9 82.8 0.00 0.0495943 71.5
2020-09-16 17:55:00 67.8 18.3 23.1 67.8 67.8 7.4 10.3 7.1 104.8 87.8 0.00 0.0453926 71.5
2020-09-16 18:00:00 67.7 18.7 23.5 67.7 67.7 5.1 10.1 7.2 71.8 86.2 0.00 0.0411802 71.4
2020-09-16 18:05:00 67.3 18.8 23.3 67.3 67.3 8.5 10.3 6.9 74.8 97.4 0.00 0.0373122 71.3
2020-09-16 18:10:00 67.1 19.4 23.9 67.1 67.1 5.6 9.2 4.9 82.8 87.4 0.00 0.0329228 71.2
2020-09-16 18:15:00 66.9 19.6 24.1 66.9 66.9 4.2 10.1 6.4 94.2 89.0 0.00 0.0291681 71.1
2020-09-16 18:20:00 66.5 20.4 24.7 66.5 66.5 3.8 7.2 5.1 70.9 85.9 0.00 0.0254124 71.0
2020-09-16 18:25:00 66.4 19.4 23.4 66.4 66.4 7.6 11.0 6.3 129.3 94.4 0.00 0.0216222 70.9
2020-09-16 18:30:00 66.1 19.5 23.2 66.1 66.1 7.2 11.0 6.9 118.4 90.8 0.00 0.0182776 70.8
2020-09-16 18:35:00 65.6 20.5 24.0 65.6 65.6 5.6 6.5 4.7 75.0 83.1 0.00 0.0146630 70.6
2020-09-16 18:40:00 65.2 21.1 24.4 65.2 65.2 3.1 8.5 4.6 114.7 93.4 0.00 0.0094659 70.5
2020-09-16 18:45:00 64.7 20.2 22.9 64.7 64.7 6.7 8.0 4.5 77.2 95.8 0.00 0.0067197 70.4
2020-09-16 18:50:00 64.3 22.5 25.1 64.3 64.3 2.1 6.3 3.4 151.0 81.6 0.00 0.0046170 70.3
2020-09-16 18:55:00 63.3 22.4 24.3 63.3 63.3 2.8 3.1 1.4 79.4 73.1 0.00 0.0024624 70.1
2020-09-16 19:00:00 62.8 23.4 24.8 62.8 62.8 1.7 3.1 2.1 87.3 89.6 0.00 0.0010578 70.0
2020-09-16 19:05:00 62.5 22.8 23.9 62.5 62.5 3.0 5.3 2.5 22.6 80.1 0.00 0.0001062 69.9
2020-09-16 19:10:00 62.5 22.4 23.5 62.5 62.5 1.9 4.9 2.0 19.2 66.4 0.00 0.0000000 69.7
2020-09-16 19:15:00 61.7 25.4 25.9 61.7 61.7 2.1 2.1 0.7 215.9 101.7 0.00 0.0000000 69.6
2020-09-16 19:20:00 59.3 31.0 28.7 59.3 59.3 1.9 3.1 2.2 204.4 252.7 0.00 0.0000000 69.4
2020-09-16 19:25:00 57.3 32.5 28.0 57.3 57.3 2.2 2.4 1.3 230.5 258.1 0.00 0.0000000 69.3
2020-09-16 19:30:00 56.5 32.4 27.2 56.5 56.5 3.3 3.7 2.6 248.2 260.6 0.00 0.0000000 69.1
2020-09-16 19:35:00 55.9 33.8 27.8 55.9 55.9 1.2 4.4 2.1 275.5 252.9 0.00 0.0000000 69.0
2020-09-16 19:40:00 55.5 33.1 27.0 55.5 55.5 3.7 3.8 2.7 263.5 263.6 0.00 0.0000000 68.8
2020-09-16 19:45:00 55.2 35.4 28.2 55.2 55.2 1.7 3.5 1.9 247.1 250.0 0.00 0.0000000 68.7
2020-09-16 19:50:00 55.2 32.1 25.9 55.2 55.2 3.5 4.4 2.6 231.5 267.8 0.00 0.0000000 68.5
2020-09-16 19:55:00 55.3 35.7 28.6 55.3 55.3 2.4 4.0 2.6 285.7 267.3 0.00 0.0000000 68.4
2020-09-16 20:00:00 54.1 36.6 28.1 54.1 54.1 2.8 3.1 2.3 232.7 262.4 0.00 0.0000000 68.2
2020-09-16 20:05:00 54.5 33.7 26.5 54.5 54.5 3.5 5.1 3.6 264.2 255.5 0.00 0.0000000 68.0
2020-09-16 20:10:00 54.7 35.6 28.0 54.7 54.7 3.0 5.1 4.3 251.8 259.3 0.00 0.0000000 67.9
2020-09-16 20:15:00 53.4 37.6 28.1 53.4 53.4 4.6 5.1 3.5 238.8 252.5 0.00 0.0000000 67.7
2020-09-16 20:20:00 52.1 41.0 29.1 52.1 52.1 3.3 4.6 3.4 233.3 253.4 0.00 0.0000000 67.6
2020-09-16 20:25:00 51.4 41.9 29.0 51.4 51.4 3.8 4.7 3.4 220.4 248.2 0.00 0.0000000 67.4
2020-09-16 20:30:00 50.9 40.8 27.9 50.9 50.9 2.6 4.6 3.1 260.4 238.0 0.00 0.0000000 67.3
2020-09-16 20:35:00 50.9 40.9 28.0 50.9 50.9 3.1 4.9 3.3 243.6 241.6 0.00 0.0000000 67.1
2020-09-16 20:40:00 51.1 40.9 28.1 51.1 51.1 2.6 5.5 2.6 216.3 246.1 0.00 0.0000000 67.0
2020-09-16 20:45:00 50.7 40.4 27.5 50.7 50.7 5.1 5.6 3.5 252.1 241.2 0.00 0.0000000 66.8
2020-09-16 20:50:00 51.0 40.3 27.8 51.0 51.0 3.3 6.2 3.8 212.8 247.5 0.00 0.0000000 66.7
2020-09-16 20:55:00 50.4 41.7 28.0 50.4 50.4 4.9 5.1 4.0 212.1 217.7 0.00 0.0000000 66.6
2020-09-16 21:00:00 50.0 41.9 27.7 50.0 50.0 2.8 5.1 3.4 285.9 241.4 0.00 0.0000000 66.4
2020-09-16 21:05:00 50.5 40.5 27.3 50.5 50.5 2.8 5.1 3.7 209.9 255.9 0.00 0.0000000 66.3
2020-09-16 21:10:00 50.8 40.0 27.3 50.8 50.8 5.8 6.9 4.7 255.8 249.9 0.00 0.0000000 66.1
2020-09-16 21:15:00 51.1 39.4 27.2 51.1 51.1 4.9 6.9 5.0 242.5 261.0 0.00 0.0000000 66.0
2020-09-16 21:20:00 50.0 41.9 27.8 50.0 50.0 1.9 6.3 3.8 206.5 245.1 0.00 0.0000000 65.9
2020-09-16 21:25:00 50.3 41.1 27.5 50.3 50.3 3.1 7.4 3.7 276.1 248.3 0.00 0.0000000 65.7
2020-09-16 21:30:00 50.2 41.6 27.7 50.2 50.2 2.1 5.5 3.6 301.9 270.4 0.00 0.0000000 65.6
2020-09-16 21:35:00 49.9 42.1 27.8 48.9 49.9 3.8 4.6 3.3 275.7 260.6 0.00 0.0000000 65.5
2020-09-16 21:40:00 49.0 43.8 27.9 47.2 49.0 4.7 7.2 4.1 256.9 244.6 0.00 0.0000000 65.4
2020-09-16 21:45:00 47.9 46.9 28.6 45.1 47.9 6.2 6.2 3.5 201.6 233.4 0.00 0.0000000 65.2
2020-09-16 21:50:00 47.8 47.4 28.7 47.0 47.8 3.1 5.5 3.9 199.9 236.0 0.00 0.0000000 65.1
2020-09-16 21:55:00 47.5 46.6 28.1 47.5 47.5 3.0 8.3 4.3 279.6 246.8 0.00 0.0000000 65.0
2020-09-16 22:00:00 48.1 45.8 28.1 45.4 48.1 5.8 6.5 4.3 272.0 255.5 0.00 0.0000000 64.9
2020-09-16 22:05:00 48.1 46.1 28.3 45.5 48.1 5.6 6.7 4.9 256.0 260.7 0.00 0.0000000 64.8
2020-09-16 22:10:00 48.5 45.5 28.4 46.7 48.5 4.6 8.1 5.4 234.8 258.5 0.00 0.0000000 64.7
2020-09-16 22:15:00 47.4 49.1 29.2 46.3 47.4 3.5 6.3 4.4 223.2 231.3 0.00 0.0000000 64.6
2020-09-16 22:20:00 46.5 49.9 28.8 45.0 46.5 3.8 4.9 3.6 249.0 237.5 0.00 0.0000000 64.5
2020-09-16 22:25:00 46.5 49.5 28.6 43.5 46.5 6.0 6.2 4.1 242.4 245.7 0.00 0.0000000 64.4
2020-09-16 22:30:00 46.5 49.3 28.5 43.8 46.5 5.5 8.5 6.0 251.5 254.9 0.00 0.0000000 64.2
2020-09-16 22:35:00 46.8 50.1 29.2 45.9 46.8 3.1 5.8 3.7 222.8 238.3 0.00 0.0000000 64.1
2020-09-16 22:40:00 45.8 51.9 29.1 44.4 45.8 3.5 5.3 3.1 283.0 244.0 0.00 0.0000000 64.1
2020-09-16 22:45:00 46.2 50.9 29.0 45.0 46.2 3.3 7.1 4.6 258.8 261.7 0.00 0.0000000 63.9
2020-09-16 22:50:00 47.0 49.4 29.0 44.2 47.0 5.8 8.0 5.3 260.8 269.0 0.00 0.0000000 63.8
2020-09-16 22:55:00 47.9 47.1 28.7 45.1 47.9 6.0 8.0 5.8 278.1 273.1 0.00 0.0000000 63.7
2020-09-16 23:00:00 47.8 48.5 29.4 45.4 47.8 5.5 7.8 5.7 303.2 275.2 0.00 0.0000000 63.6
2020-09-16 23:05:00 47.0 50.1 29.4 44.1 47.0 6.0 7.8 5.9 252.5 257.5 0.00 0.0000000 63.5
2020-09-16 23:10:00 46.7 50.9 29.5 44.2 46.7 5.3 6.7 5.2 285.8 268.5 0.00 0.0000000 63.4
2020-09-16 23:15:00 47.0 50.3 29.5 43.9 47.0 6.3 7.8 4.9 304.5 286.6 0.00 0.0000000 63.3
2020-09-16 23:20:00 47.0 50.7 29.7 44.7 47.0 5.1 8.3 5.6 290.6 297.6 0.00 0.0000000 63.2
2020-09-16 23:25:00 47.0 51.1 29.8 44.6 47.0 5.1 5.5 4.0 280.4 280.4 0.00 0.0000000 63.2
2020-09-16 23:30:00 46.4 53.7 30.5 45.4 46.4 3.1 6.0 4.2 249.3 270.5 0.00 0.0000000 63.1
2020-09-16 23:35:00 44.8 56.3 30.2 40.8 44.8 7.2 7.2 4.9 259.9 257.1 0.00 0.0000000 63.0
2020-09-16 23:40:00 45.1 56.3 30.4 42.5 45.1 4.9 8.0 5.6 311.7 275.1 0.00 0.0000000 62.9
2020-09-16 23:45:00 45.4 55.1 30.2 43.3 45.4 4.2 7.1 4.8 284.1 270.8 0.00 0.0000000 62.8
2020-09-16 23:50:00 45.3 56.0 30.5 43.6 45.3 3.8 5.5 4.0 275.6 280.1 0.00 0.0000000 62.7
2020-09-16 23:55:00 44.5 57.9 30.6 43.3 44.5 3.1 7.6 4.9 271.6 268.5 0.00 0.0000000 62.6
2020-09-17 00:00:00 44.4 57.9 30.5 42.2 44.4 4.2 5.5 3.6 304.0 285.4 0.00 0.0000000 62.5

Data is courtesy of the NM Climate Center. DO NOT USE IN LEGAL PROCEEDINGS.